sensor_id;sensor_type;location;lat;lon;timestamp;pressure;altitude;pressure_sealevel;temperature;humidity
12594;BME280;6362;50.208;9.182;2023-02-02T00:01:24;100182.59;;;5.13;74.54
12594;BME280;6362;50.208;9.182;2023-02-02T00:03:50;100183.44;;;5.12;74.87
12594;BME280;6362;50.208;9.182;2023-02-02T00:06:20;100178.22;;;5.09;75.07
12594;BME280;6362;50.208;9.182;2023-02-02T00:08:46;100175.72;;;5.12;75.25
12594;BME280;6362;50.208;9.182;2023-02-02T00:11:12;100177.44;;;5.13;75.36
12594;BME280;6362;50.208;9.182;2023-02-02T00:13:39;100166.28;;;5.14;74.99
12594;BME280;6362;50.208;9.182;2023-02-02T00:18:57;100176.56;;;5.12;75.16
12594;BME280;6362;50.208;9.182;2023-02-02T00:21:23;100173.16;;;5.13;75.32
12594;BME280;6362;50.208;9.182;2023-02-02T00:23:49;100181.72;;;5.12;75.55
12594;BME280;6362;50.208;9.182;2023-02-02T00:26:14;100170.09;;;5.34;75.21
12594;BME280;6362;50.208;9.182;2023-02-02T00:28:40;100171.75;;;5.30;75.16
12594;BME280;6362;50.208;9.182;2023-02-02T00:31:05;100172.31;;;5.66;74.25
12594;BME280;6362;50.208;9.182;2023-02-02T00:33:31;100162.25;;;5.81;73.42
12594;BME280;6362;50.208;9.182;2023-02-02T00:35:56;100157.09;;;5.82;73.60
12594;BME280;6362;50.208;9.182;2023-02-02T00:38:22;100157.09;;;5.81;73.28
12594;BME280;6362;50.208;9.182;2023-02-02T00:40:47;100152.13;;;5.93;72.87
12594;BME280;6362;50.208;9.182;2023-02-02T00:43:13;100154.78;;;5.96;72.99
12594;BME280;6362;50.208;9.182;2023-02-02T00:45:38;100164.31;;;6.02;73.28
12594;BME280;6362;50.208;9.182;2023-02-02T00:48:04;100149.63;;;5.98;73.35
12594;BME280;6362;50.208;9.182;2023-02-02T00:50:30;100155.38;;;5.81;74.87
12594;BME280;6362;50.208;9.182;2023-02-02T00:52:56;100185.31;;;5.72;75.83
12594;BME280;6362;50.208;9.182;2023-02-02T00:55:25;100180.03;;;5.63;77.11
12594;BME280;6362;50.208;9.182;2023-02-02T00:57:51;100200.94;;;5.29;78.95
12594;BME280;6362;50.208;9.182;2023-02-02T01:00:19;100177.63;;;5.23;77.10
12594;BME280;6362;50.208;9.182;2023-02-02T01:02:45;100187.31;;;5.35;77.85
12594;BME280;6362;50.208;9.182;2023-02-02T01:05:11;100195.69;;;5.23;77.65
12594;BME280;6362;50.208;9.182;2023-02-02T01:07:38;100195.47;;;5.11;78.98
12594;BME280;6362;50.208;9.182;2023-02-02T01:10:04;100221.50;;;4.83;79.81
12594;BME280;6362;50.208;9.182;2023-02-02T01:12:30;100208.63;;;4.81;80.71
12594;BME280;6362;50.208;9.182;2023-02-02T01:14:56;100201.66;;;4.77;80.91
12594;BME280;6362;50.208;9.182;2023-02-02T01:17:21;100198.94;;;4.69;81.51
12594;BME280;6362;50.208;9.182;2023-02-02T01:19:46;100222.00;;;4.65;81.85
12594;BME280;6362;50.208;9.182;2023-02-02T01:22:12;100237.22;;;4.53;82.41
12594;BME280;6362;50.208;9.182;2023-02-02T01:24:37;100241.28;;;4.43;81.95
12594;BME280;6362;50.208;9.182;2023-02-02T01:27:03;100240.84;;;4.23;81.82
12594;BME280;6362;50.208;9.182;2023-02-02T01:29:28;100233.88;;;4.17;82.82
12594;BME280;6362;50.208;9.182;2023-02-02T01:31:54;100243.22;;;4.14;82.85
12594;BME280;6362;50.208;9.182;2023-02-02T01:34:19;100239.50;;;4.03;83.18
12594;BME280;6362;50.208;9.182;2023-02-02T01:36:45;100237.69;;;3.98;83.06
12594;BME280;6362;50.208;9.182;2023-02-02T01:39:10;100244.38;;;3.90;83.60
12594;BME280;6362;50.208;9.182;2023-02-02T01:41:36;100241.53;;;3.80;83.76
12594;BME280;6362;50.208;9.182;2023-02-02T01:44:03;100242.28;;;3.76;83.24
12594;BME280;6362;50.208;9.182;2023-02-02T01:46:35;100248.97;;;3.69;84.52
12594;BME280;6362;50.208;9.182;2023-02-02T01:49:13;100244.56;;;3.63;84.39
12594;BME280;6362;50.208;9.182;2023-02-02T01:51:46;100238.44;;;3.60;84.38
12594;BME280;6362;50.208;9.182;2023-02-02T01:54:18;100246.13;;;3.58;84.57
12594;BME280;6362;50.208;9.182;2023-02-02T01:56:51;100253.03;;;3.61;84.40
12594;BME280;6362;50.208;9.182;2023-02-02T01:59:18;100245.16;;;3.53;84.23
12594;BME280;6362;50.208;9.182;2023-02-02T02:01:45;100227.25;;;3.56;84.66
12594;BME280;6362;50.208;9.182;2023-02-02T02:04:12;100238.97;;;3.47;84.63
12594;BME280;6362;50.208;9.182;2023-02-02T02:06:38;100238.94;;;3.45;85.13
12594;BME280;6362;50.208;9.182;2023-02-02T02:09:05;100230.31;;;3.43;84.94
12594;BME280;6362;50.208;9.182;2023-02-02T02:11:33;100225.94;;;3.39;85.77
12594;BME280;6362;50.208;9.182;2023-02-02T02:14:01;100234.44;;;3.36;85.42
12594;BME280;6362;50.208;9.182;2023-02-02T02:34:38;100241.09;;;3.28;85.26
12594;BME280;6362;50.208;9.182;2023-02-02T02:37:17;100242.84;;;3.31;85.07
12594;BME280;6362;50.208;9.182;2023-02-02T02:39:56;100242.13;;;3.36;85.40
12594;BME280;6362;50.208;9.182;2023-02-02T02:42:29;100248.13;;;3.35;85.12
12594;BME280;6362;50.208;9.182;2023-02-02T02:44:56;100245.72;;;3.41;85.40
12594;BME280;6362;50.208;9.182;2023-02-02T02:47:24;100234.38;;;3.66;84.63
12594;BME280;6362;50.208;9.182;2023-02-02T02:49:50;100234.13;;;3.57;85.03
12594;BME280;6362;50.208;9.182;2023-02-02T02:52:15;100232.69;;;3.68;84.69
12594;BME280;6362;50.208;9.182;2023-02-02T02:55:00;100229.22;;;3.66;83.92
12594;BME280;6362;50.208;9.182;2023-02-02T03:00:36;100222.09;;;3.56;84.63
12594;BME280;6362;50.208;9.182;2023-02-02T03:03:15;100231.72;;;3.65;84.91
12594;BME280;6362;50.208;9.182;2023-02-02T03:05:51;100233.44;;;3.64;84.71
12594;BME280;6362;50.208;9.182;2023-02-02T03:08:26;100225.41;;;3.52;84.85
12594;BME280;6362;50.208;9.182;2023-02-02T03:10:55;100221.13;;;3.53;85.22
12594;BME280;6362;50.208;9.182;2023-02-02T03:13:21;100220.00;;;3.41;85.28
12594;BME280;6362;50.208;9.182;2023-02-02T03:15:46;100207.81;;;3.34;85.86
12594;BME280;6362;50.208;9.182;2023-02-02T03:18:13;100213.72;;;3.30;86.10
12594;BME280;6362;50.208;9.182;2023-02-02T03:20:42;100215.38;;;3.28;86.70
12594;BME280;6362;50.208;9.182;2023-02-02T03:23:08;100212.75;;;3.27;86.74
12594;BME280;6362;50.208;9.182;2023-02-02T03:25:34;100214.50;;;3.28;86.97
12594;BME280;6362;50.208;9.182;2023-02-02T03:27:59;100217.94;;;3.28;87.18
12594;BME280;6362;50.208;9.182;2023-02-02T03:30:25;100207.69;;;3.30;87.54
12594;BME280;6362;50.208;9.182;2023-02-02T03:32:51;100198.38;;;3.33;87.80
12594;BME280;6362;50.208;9.182;2023-02-02T03:35:17;100206.84;;;3.29;87.81
12594;BME280;6362;50.208;9.182;2023-02-02T03:37:45;100204.31;;;3.32;88.04
12594;BME280;6362;50.208;9.182;2023-02-02T03:40:12;100199.25;;;3.34;87.78
12594;BME280;6362;50.208;9.182;2023-02-02T03:42:37;100191.47;;;3.32;87.87
12594;BME280;6362;50.208;9.182;2023-02-02T03:45:03;100205.38;;;3.39;87.57
12594;BME280;6362;50.208;9.182;2023-02-02T03:47:29;100201.13;;;3.41;88.11
12594;BME280;6362;50.208;9.182;2023-02-02T03:49:55;100207.97;;;3.40;88.28
12594;BME280;6362;50.208;9.182;2023-02-02T03:52:21;100202.16;;;3.48;88.72
12594;BME280;6362;50.208;9.182;2023-02-02T03:54:46;100209.16;;;3.53;88.37
12594;BME280;6362;50.208;9.182;2023-02-02T03:57:11;100213.53;;;3.56;88.20
12594;BME280;6362;50.208;9.182;2023-02-02T03:59:37;100218.16;;;3.70;88.80
12594;BME280;6362;50.208;9.182;2023-02-02T04:02:02;100230.34;;;3.78;89.71
12594;BME280;6362;50.208;9.182;2023-02-02T04:04:28;100233.22;;;3.90;89.66
12594;BME280;6362;50.208;9.182;2023-02-02T04:06:53;100237.75;;;4.00;89.11
12594;BME280;6362;50.208;9.182;2023-02-02T04:09:20;100243.09;;;4.09;88.76
12594;BME280;6362;50.208;9.182;2023-02-02T04:11:45;100245.22;;;4.27;88.09
12594;BME280;6362;50.208;9.182;2023-02-02T04:14:10;100251.47;;;4.38;87.54
12594;BME280;6362;50.208;9.182;2023-02-02T04:16:36;100245.47;;;4.38;88.01
12594;BME280;6362;50.208;9.182;2023-02-02T04:19:03;100249.88;;;4.43;87.51
12594;BME280;6362;50.208;9.182;2023-02-02T04:21:28;100263.50;;;4.38;87.38
12594;BME280;6362;50.208;9.182;2023-02-02T04:23:55;100262.63;;;4.37;87.44
12594;BME280;6362;50.208;9.182;2023-02-02T04:26:20;100260.75;;;4.30;86.88
12594;BME280;6362;50.208;9.182;2023-02-02T04:28:46;100260.75;;;4.30;87.25
12594;BME280;6362;50.208;9.182;2023-02-02T04:31:11;100259.91;;;4.31;87.33
12594;BME280;6362;50.208;9.182;2023-02-02T04:33:37;100257.28;;;4.28;87.75
12594;BME280;6362;50.208;9.182;2023-02-02T04:36:03;100265.00;;;4.28;87.69
12594;BME280;6362;50.208;9.182;2023-02-02T04:38:28;100265.94;;;4.32;87.43
12594;BME280;6362;50.208;9.182;2023-02-02T04:40:54;100267.59;;;4.28;87.78
12594;BME280;6362;50.208;9.182;2023-02-02T04:43:19;100261.47;;;4.24;87.82
12594;BME280;6362;50.208;9.182;2023-02-02T04:45:45;100263.31;;;4.30;88.04
12594;BME280;6362;50.208;9.182;2023-02-02T04:48:10;100272.72;;;4.28;87.82
12594;BME280;6362;50.208;9.182;2023-02-02T04:50:36;100277.88;;;4.28;88.07
12594;BME280;6362;50.208;9.182;2023-02-02T04:53:02;100263.31;;;4.29;87.48
12594;BME280;6362;50.208;9.182;2023-02-02T04:55:27;100273.59;;;4.29;87.45
12594;BME280;6362;50.208;9.182;2023-02-02T04:57:53;100278.03;;;4.36;87.43
12594;BME280;6362;50.208;9.182;2023-02-02T05:00:18;100283.19;;;4.36;87.09
12594;BME280;6362;50.208;9.182;2023-02-02T05:02:44;100277.16;;;4.34;87.28
12594;BME280;6362;50.208;9.182;2023-02-02T05:05:12;100276.38;;;4.38;87.22
12594;BME280;6362;50.208;9.182;2023-02-02T05:07:37;100278.84;;;4.33;87.46
12594;BME280;6362;50.208;9.182;2023-02-02T05:10:05;100277.22;;;4.38;87.06
12594;BME280;6362;50.208;9.182;2023-02-02T05:12:31;100285.75;;;4.34;87.26
12594;BME280;6362;50.208;9.182;2023-02-02T05:14:56;100278.88;;;4.35;87.72
12594;BME280;6362;50.208;9.182;2023-02-02T05:17:25;100277.19;;;4.35;87.60
12594;BME280;6362;50.208;9.182;2023-02-02T05:19:51;100284.94;;;4.38;87.72
12594;BME280;6362;50.208;9.182;2023-02-02T05:22:16;100284.16;;;4.39;88.14
12594;BME280;6362;50.208;9.182;2023-02-02T05:24:42;100285.13;;;4.44;88.18
12594;BME280;6362;50.208;9.182;2023-02-02T05:27:07;100282.44;;;4.40;88.28
12594;BME280;6362;50.208;9.182;2023-02-02T05:29:33;100284.19;;;4.42;87.81
12594;BME280;6362;50.208;9.182;2023-02-02T05:31:58;100282.50;;;4.43;88.36
12594;BME280;6362;50.208;9.182;2023-02-02T05:34:23;100280.97;;;4.51;88.35
12594;BME280;6362;50.208;9.182;2023-02-02T05:36:50;100282.59;;;4.47;87.71
12594;BME280;6362;50.208;9.182;2023-02-02T05:39:16;100282.03;;;4.61;87.90
12594;BME280;6362;50.208;9.182;2023-02-02T05:41:42;100275.94;;;4.56;87.74
12594;BME280;6362;50.208;9.182;2023-02-02T05:44:11;100285.31;;;4.54;88.24
12594;BME280;6362;50.208;9.182;2023-02-02T05:46:37;100275.88;;;4.54;88.16
12594;BME280;6362;50.208;9.182;2023-02-02T05:49:02;100287.88;;;4.54;88.16
12594;BME280;6362;50.208;9.182;2023-02-02T05:51:50;100289.69;;;4.58;87.88
12594;BME280;6362;50.208;9.182;2023-02-02T05:54:16;100282.81;;;4.57;88.18
12594;BME280;6362;50.208;9.182;2023-02-02T05:56:49;100275.22;;;4.63;87.97
12594;BME280;6362;50.208;9.182;2023-02-02T05:59:16;100285.53;;;4.63;88.09
12594;BME280;6362;50.208;9.182;2023-02-02T06:01:46;100282.09;;;4.64;88.06
12594;BME280;6362;50.208;9.182;2023-02-02T06:04:12;100281.25;;;4.65;88.02
12594;BME280;6362;50.208;9.182;2023-02-02T06:06:37;100286.41;;;4.65;88.39
12594;BME280;6362;50.208;9.182;2023-02-02T06:09:05;100285.56;;;4.64;88.57
12594;BME280;6362;50.208;9.182;2023-02-02T06:11:31;100290.03;;;4.73;88.53
12594;BME280;6362;50.208;9.182;2023-02-02T06:13:56;100288.38;;;4.76;88.50
12594;BME280;6362;50.208;9.182;2023-02-02T06:16:23;100290.19;;;4.79;88.18
12594;BME280;6362;50.208;9.182;2023-02-02T06:18:48;100297.16;;;4.85;88.58
12594;BME280;6362;50.208;9.182;2023-02-02T06:21:14;100298.31;;;4.99;88.10
12594;BME280;6362;50.208;9.182;2023-02-02T06:23:39;100294.03;;;4.99;87.67
12594;BME280;6362;50.208;9.182;2023-02-02T06:26:11;100300.34;;;5.14;87.33
12594;BME280;6362;50.208;9.182;2023-02-02T06:28:36;100310.56;;;5.09;87.58
12594;BME280;6362;50.208;9.182;2023-02-02T06:31:06;100311.50;;;5.13;87.02
12594;BME280;6362;50.208;9.182;2023-02-02T06:33:32;100306.25;;;5.10;87.37
12594;BME280;6362;50.208;9.182;2023-02-02T06:36:01;100291.09;;;5.25;87.14
12594;BME280;6362;50.208;9.182;2023-02-02T06:38:27;100295.38;;;5.23;86.02
12594;BME280;6362;50.208;9.182;2023-02-02T06:40:53;100310.94;;;5.27;86.16
12594;BME280;6362;50.208;9.182;2023-02-02T06:43:19;100314.13;;;5.16;86.69
12594;BME280;6362;50.208;9.182;2023-02-02T06:45:44;100311.63;;;5.19;86.90
12594;BME280;6362;50.208;9.182;2023-02-02T06:48:10;100302.19;;;5.21;86.21
12594;BME280;6362;50.208;9.182;2023-02-02T06:50:37;100314.19;;;5.19;86.47
12594;BME280;6362;50.208;9.182;2023-02-02T06:53:03;100303.13;;;5.24;86.28
12594;BME280;6362;50.208;9.182;2023-02-02T06:55:29;100296.34;;;5.28;86.55
12594;BME280;6362;50.208;9.182;2023-02-02T06:57:56;100307.66;;;5.36;85.55
12594;BME280;6362;50.208;9.182;2023-02-02T07:00:22;100303.25;;;5.30;85.74
12594;BME280;6362;50.208;9.182;2023-02-02T07:02:47;100301.72;;;5.40;84.81
12594;BME280;6362;50.208;9.182;2023-02-02T07:05:13;100296.72;;;5.49;85.00
12594;BME280;6362;50.208;9.182;2023-02-02T07:07:38;100301.84;;;5.46;84.84
12594;BME280;6362;50.208;9.182;2023-02-02T07:10:04;100305.19;;;5.42;84.10
12594;BME280;6362;50.208;9.182;2023-02-02T07:12:30;100303.53;;;5.44;84.95
12594;BME280;6362;50.208;9.182;2023-02-02T07:14:56;100299.88;;;5.33;84.95
12594;BME280;6362;50.208;9.182;2023-02-02T07:17:23;100298.31;;;5.43;84.82
12594;BME280;6362;50.208;9.182;2023-02-02T07:19:49;100298.22;;;5.37;84.76
12594;BME280;6362;50.208;9.182;2023-02-02T07:22:17;100300.75;;;5.34;85.57
12594;BME280;6362;50.208;9.182;2023-02-02T07:24:43;100308.72;;;5.46;84.64
12594;BME280;6362;50.208;9.182;2023-02-02T07:27:08;100305.28;;;5.45;84.57
12594;BME280;6362;50.208;9.182;2023-02-02T07:29:34;100302.63;;;5.42;85.16
12594;BME280;6362;50.208;9.182;2023-02-02T07:31:59;100315.28;;;5.77;87.72
12594;BME280;6362;50.208;9.182;2023-02-02T07:34:25;100313.63;;;5.79;85.25
12594;BME280;6362;50.208;9.182;2023-02-02T07:36:50;100327.44;;;5.82;84.83
12594;BME280;6362;50.208;9.182;2023-02-02T07:39:16;100325.63;;;5.77;83.70
12594;BME280;6362;50.208;9.182;2023-02-02T07:41:41;100329.22;;;5.85;83.71
12594;BME280;6362;50.208;9.182;2023-02-02T07:44:14;100330.78;;;5.77;83.04
12594;BME280;6362;50.208;9.182;2023-02-02T07:46:42;100338.31;;;5.66;84.06
12594;BME280;6362;50.208;9.182;2023-02-02T07:49:12;100332.88;;;5.51;84.51
12594;BME280;6362;50.208;9.182;2023-02-02T07:51:38;100338.81;;;5.47;84.97
12594;BME280;6362;50.208;9.182;2023-02-02T07:54:04;100338.91;;;5.51;84.43
12594;BME280;6362;50.208;9.182;2023-02-02T07:56:30;100338.16;;;5.55;83.93
12594;BME280;6362;50.208;9.182;2023-02-02T07:58:56;100356.06;;;5.49;84.21
12594;BME280;6362;50.208;9.182;2023-02-02T08:01:24;100340.63;;;5.51;84.07
12594;BME280;6362;50.208;9.182;2023-02-02T08:03:51;100349.13;;;5.47;84.29
12594;BME280;6362;50.208;9.182;2023-02-02T08:06:24;100362.13;;;5.51;84.62
12594;BME280;6362;50.208;9.182;2023-02-02T08:08:50;100363.88;;;5.54;84.40
12594;BME280;6362;50.208;9.182;2023-02-02T08:11:18;100360.72;;;5.67;83.80
12594;BME280;6362;50.208;9.182;2023-02-02T08:13:48;100359.97;;;5.73;83.24
12594;BME280;6362;50.208;9.182;2023-02-02T08:16:13;100356.59;;;5.77;83.07
12594;BME280;6362;50.208;9.182;2023-02-02T08:18:39;100355.69;;;5.75;82.83
12594;BME280;6362;50.208;9.182;2023-02-02T08:21:06;100362.56;;;5.74;82.79
12594;BME280;6362;50.208;9.182;2023-02-02T08:23:39;100360.75;;;5.69;83.34
12594;BME280;6362;50.208;9.182;2023-02-02T08:28:30;100365.06;;;5.70;83.25
12594;BME280;6362;50.208;9.182;2023-02-02T08:30:55;100367.72;;;5.74;83.46
12594;BME280;6362;50.208;9.182;2023-02-02T08:33:21;100361.72;;;5.75;83.13
12594;BME280;6362;50.208;9.182;2023-02-02T08:35:46;100375.34;;;5.67;83.40
12594;BME280;6362;50.208;9.182;2023-02-02T08:38:12;100373.75;;;5.73;83.83
12594;BME280;6362;50.208;9.182;2023-02-02T08:40:37;100386.66;;;5.73;83.13
12594;BME280;6362;50.208;9.182;2023-02-02T08:43:03;100371.88;;;5.66;83.57
12594;BME280;6362;50.208;9.182;2023-02-02T08:45:29;100368.50;;;5.70;83.51
12594;BME280;6362;50.208;9.182;2023-02-02T08:47:55;100377.09;;;5.69;83.25
12594;BME280;6362;50.208;9.182;2023-02-02T08:50:21;100373.91;;;5.82;82.49
12594;BME280;6362;50.208;9.182;2023-02-02T08:52:48;100376.53;;;5.84;82.42
12594;BME280;6362;50.208;9.182;2023-02-02T08:55:13;100377.31;;;5.81;82.94
12594;BME280;6362;50.208;9.182;2023-02-02T08:57:40;100371.19;;;5.75;83.63
12594;BME280;6362;50.208;9.182;2023-02-02T09:00:05;100377.22;;;5.77;83.06
12594;BME280;6362;50.208;9.182;2023-02-02T09:02:31;100387.50;;;5.72;83.48
12594;BME280;6362;50.208;9.182;2023-02-02T09:04:57;100381.63;;;5.82;83.93
12594;BME280;6362;50.208;9.182;2023-02-02T09:07:22;100382.38;;;5.75;83.36
12594;BME280;6362;50.208;9.182;2023-02-02T09:09:47;100390.94;;;5.73;83.79
12594;BME280;6362;50.208;9.182;2023-02-02T09:12:15;100391.84;;;5.76;83.66
12594;BME280;6362;50.208;9.182;2023-02-02T09:14:40;100389.25;;;5.76;84.04
12594;BME280;6362;50.208;9.182;2023-02-02T09:17:05;100389.38;;;5.82;83.64
12594;BME280;6362;50.208;9.182;2023-02-02T09:19:31;100399.06;;;5.93;82.11
12594;BME280;6362;50.208;9.182;2023-02-02T09:21:56;100399.06;;;5.93;82.65
12594;BME280;6362;50.208;9.182;2023-02-02T09:24:22;100393.84;;;5.90;82.13
12594;BME280;6362;50.208;9.182;2023-02-02T09:26:47;100394.63;;;5.87;82.44
12594;BME280;6362;50.208;9.182;2023-02-02T09:29:15;100396.34;;;5.87;81.97
12594;BME280;6362;50.208;9.182;2023-02-02T09:31:42;100408.25;;;5.78;82.75
12594;BME280;6362;50.208;9.182;2023-02-02T09:34:10;100416.91;;;5.82;82.58
12594;BME280;6362;50.208;9.182;2023-02-02T09:36:36;100424.81;;;5.90;82.34
12594;BME280;6362;50.208;9.182;2023-02-02T09:39:03;100423.94;;;5.89;82.31
12594;BME280;6362;50.208;9.182;2023-02-02T09:44:29;100423.38;;;6.04;81.58
12594;BME280;6362;50.208;9.182;2023-02-02T09:52:57;100439.47;;;5.91;82.28
12594;BME280;6362;50.208;9.182;2023-02-02T09:55:38;100444.69;;;5.94;81.51
12594;BME280;6362;50.208;9.182;2023-02-02T10:03:57;100455.09;;;5.97;81.78
12594;BME280;6362;50.208;9.182;2023-02-02T10:14:40;100453.41;;;5.99;82.39
12594;BME280;6362;50.208;9.182;2023-02-02T10:17:54;100465.66;;;6.11;81.31
12594;BME280;6362;50.208;9.182;2023-02-02T10:20:47;100457.16;;;6.16;81.05
12594;BME280;6362;50.208;9.182;2023-02-02T10:23:27;100476.16;;;6.17;81.33
12594;BME280;6362;50.208;9.182;2023-02-02T10:45:01;100467.88;;;6.36;78.85
12594;BME280;6362;50.208;9.182;2023-02-02T10:47:36;100462.88;;;6.45;78.78
12594;BME280;6362;50.208;9.182;2023-02-02T10:50:16;100474.78;;;6.37;78.77
12594;BME280;6362;50.208;9.182;2023-02-02T10:52:46;100471.41;;;6.41;78.73
12594;BME280;6362;50.208;9.182;2023-02-02T11:00:32;100472.25;;;6.40;78.66
12594;BME280;6362;50.208;9.182;2023-02-02T11:03:00;100471.53;;;6.49;78.25
12594;BME280;6362;50.208;9.182;2023-02-02T11:05:29;100481.78;;;6.43;78.49
12594;BME280;6362;50.208;9.182;2023-02-02T11:08:19;100475.09;;;6.54;77.55
12594;BME280;6362;50.208;9.182;2023-02-02T11:10:50;100480.16;;;6.49;78.19
12594;BME280;6362;50.208;9.182;2023-02-02T11:13:29;100464.63;;;6.46;78.63
12594;BME280;6362;50.208;9.182;2023-02-02T11:18:40;100465.59;;;6.54;78.30
12594;BME280;6362;50.208;9.182;2023-02-02T11:21:20;100463.09;;;6.59;78.04
12594;BME280;6362;50.208;9.182;2023-02-02T11:26:39;100454.50;;;6.58;77.96
12594;BME280;6362;50.208;9.182;2023-02-02T11:29:13;100462.22;;;6.55;77.11
12594;BME280;6362;50.208;9.182;2023-02-02T11:31:38;100458.72;;;6.53;77.69
12594;BME280;6362;50.208;9.182;2023-02-02T11:34:19;100463.97;;;6.59;77.78
12594;BME280;6362;50.208;9.182;2023-02-02T11:37:11;100467.41;;;6.58;77.64
12594;BME280;6362;50.208;9.182;2023-02-02T11:39:41;100465.69;;;6.57;77.61
12594;BME280;6362;50.208;9.182;2023-02-02T11:44:39;100470.75;;;6.51;78.51
12594;BME280;6362;50.208;9.182;2023-02-02T11:47:07;100475.06;;;6.52;78.73
12594;BME280;6362;50.208;9.182;2023-02-02T11:49:42;100472.50;;;6.54;78.86
12594;BME280;6362;50.208;9.182;2023-02-02T11:52:17;100468.06;;;6.47;79.53
12594;BME280;6362;50.208;9.182;2023-02-02T11:54:54;100471.53;;;6.49;78.51
12594;BME280;6362;50.208;9.182;2023-02-02T11:57:23;100474.97;;;6.46;79.22
12594;BME280;6362;50.208;9.182;2023-02-02T11:59:50;100475.75;;;6.44;78.95
12594;BME280;6362;50.208;9.182;2023-02-02T12:02:32;100466.22;;;6.40;79.94
12594;BME280;6362;50.208;9.182;2023-02-02T12:05:12;100466.19;;;6.38;79.71
12594;BME280;6362;50.208;9.182;2023-02-02T12:07:40;100470.66;;;6.47;78.88
12594;BME280;6362;50.208;9.182;2023-02-02T12:12:52;100484.31;;;6.40;79.66
12594;BME280;6362;50.208;9.182;2023-02-02T12:21:39;100472.91;;;6.28;80.41
12594;BME280;6362;50.208;9.182;2023-02-02T12:26:39;100475.59;;;6.33;80.51
12594;BME280;6362;50.208;9.182;2023-02-02T12:29:17;100479.81;;;6.29;80.02
12594;BME280;6362;50.208;9.182;2023-02-02T12:32:03;100478.19;;;6.33;80.08
12594;BME280;6362;50.208;9.182;2023-02-02T12:37:43;100486.13;;;6.45;80.55
12594;BME280;6362;50.208;9.182;2023-02-02T12:48:22;100481.09;;;6.53;79.34
12594;BME280;6362;50.208;9.182;2023-02-02T12:51:09;100483.16;;;6.72;78.85
12594;BME280;6362;50.208;9.182;2023-02-02T12:56:41;100486.63;;;6.73;78.83
12594;BME280;6362;50.208;9.182;2023-02-02T12:59:23;100495.84;;;6.58;79.15
12594;BME280;6362;50.208;9.182;2023-02-02T13:12:42;100489.97;;;6.67;78.75
12594;BME280;6362;50.208;9.182;2023-02-02T13:15:15;100495.13;;;6.67;79.17
12594;BME280;6362;50.208;9.182;2023-02-02T13:17:47;100495.19;;;6.70;79.72
12594;BME280;6362;50.208;9.182;2023-02-02T13:20:36;100500.25;;;6.64;79.49
12594;BME280;6362;50.208;9.182;2023-02-02T13:23:13;100497.75;;;6.70;79.47
12594;BME280;6362;50.208;9.182;2023-02-02T13:25:45;100504.56;;;6.65;79.83
12594;BME280;6362;50.208;9.182;2023-02-02T13:31:14;100505.78;;;6.84;78.77
12594;BME280;6362;50.208;9.182;2023-02-02T13:33:42;100507.41;;;6.79;79.08
12594;BME280;6362;50.208;9.182;2023-02-02T13:36:17;100506.44;;;6.74;79.32
12594;BME280;6362;50.208;9.182;2023-02-02T13:38:43;100508.00;;;6.64;80.06
12594;BME280;6362;50.208;9.182;2023-02-02T13:41:11;100508.84;;;6.63;79.61
12594;BME280;6362;50.208;9.182;2023-02-02T13:46:40;100515.84;;;6.70;80.38
12594;BME280;6362;50.208;9.182;2023-02-02T13:49:29;100517.53;;;6.67;80.43
12594;BME280;6362;50.208;9.182;2023-02-02T14:00:50;100537.16;;;6.55;81.37
12594;BME280;6362;50.208;9.182;2023-02-02T14:03:34;100532.88;;;6.59;80.97
12594;BME280;6362;50.208;9.182;2023-02-02T14:08:35;100543.34;;;6.65;80.46
12594;BME280;6362;50.208;9.182;2023-02-02T14:11:03;100532.22;;;6.71;80.43
12594;BME280;6362;50.208;9.182;2023-02-02T14:13:48;100546.00;;;6.70;80.27
12594;BME280;6362;50.208;9.182;2023-02-02T14:19:02;100541.69;;;6.69;80.75
12594;BME280;6362;50.208;9.182;2023-02-02T14:26:50;100566.03;;;6.81;80.04
12594;BME280;6362;50.208;9.182;2023-02-02T14:34:52;100579.59;;;6.70;80.38
12594;BME280;6362;50.208;9.182;2023-02-02T14:50:15;100600.38;;;6.74;80.44
12594;BME280;6362;50.208;9.182;2023-02-02T14:52:42;100595.00;;;6.64;80.76
12594;BME280;6362;50.208;9.182;2023-02-02T14:55:18;100599.28;;;6.61;80.82
12594;BME280;6362;50.208;9.182;2023-02-02T14:57:57;100604.38;;;6.58;80.86
12594;BME280;6362;50.208;9.182;2023-02-02T15:00:29;100601.78;;;6.58;81.13
12594;BME280;6362;50.208;9.182;2023-02-02T15:02:55;100601.75;;;6.55;81.40
12594;BME280;6362;50.208;9.182;2023-02-02T15:07:53;100615.50;;;6.54;81.25
12594;BME280;6362;50.208;9.182;2023-02-02T15:13:20;100618.06;;;6.54;81.35
12594;BME280;6362;50.208;9.182;2023-02-02T15:15:50;100624.94;;;6.54;81.37
12594;BME280;6362;50.208;9.182;2023-02-02T15:18:25;100627.59;;;6.55;81.43
12594;BME280;6362;50.208;9.182;2023-02-02T15:20:55;100629.31;;;6.56;80.79
12594;BME280;6362;50.208;9.182;2023-02-02T15:23:43;100631.16;;;6.62;80.89
12594;BME280;6362;50.208;9.182;2023-02-02T15:28:50;100627.78;;;6.66;80.57
12594;BME280;6362;50.208;9.182;2023-02-02T15:31:40;100626.03;;;6.65;80.21
12594;BME280;6362;50.208;9.182;2023-02-02T15:36:41;100638.25;;;6.72;80.49
12594;BME280;6362;50.208;9.182;2023-02-02T15:41:53;100639.81;;;6.64;80.46
12594;BME280;6362;50.208;9.182;2023-02-02T15:44:40;100648.44;;;6.65;79.75
12594;BME280;6362;50.208;9.182;2023-02-02T15:47:10;100642.38;;;6.63;79.86
12594;BME280;6362;50.208;9.182;2023-02-02T15:49:37;100639.94;;;6.72;79.01
12594;BME280;6362;50.208;9.182;2023-02-02T15:52:13;100642.53;;;6.72;79.37
12594;BME280;6362;50.208;9.182;2023-02-02T15:54:52;100648.53;;;6.71;79.54
12594;BME280;6362;50.208;9.182;2023-02-02T15:57:31;100647.66;;;6.69;79.44
12594;BME280;6362;50.208;9.182;2023-02-02T15:59:58;100657.13;;;6.68;79.31
12594;BME280;6362;50.208;9.182;2023-02-02T16:02:39;100665.72;;;6.67;79.32
12594;BME280;6362;50.208;9.182;2023-02-02T16:05:49;100671.81;;;6.71;78.87
12594;BME280;6362;50.208;9.182;2023-02-02T16:08:26;100670.16;;;6.73;78.31
12594;BME280;6362;50.208;9.182;2023-02-02T16:11:04;100668.53;;;6.79;77.55
12594;BME280;6362;50.208;9.182;2023-02-02T16:13:31;100678.13;;;6.83;77.56
12594;BME280;6362;50.208;9.182;2023-02-02T16:16:03;100680.91;;;6.94;77.21